sensor_id;sensor_type;location;lat;lon;timestamp;P1;durP1;ratioP1;P2;durP2;ratioP2
78873;SDS011;68250;43.514;1.494;2023-08-06T00:02:13;7.00;;;1.63;;
78873;SDS011;68250;43.514;1.494;2023-08-06T00:04:39;7.20;;;1.70;;
78873;SDS011;68250;43.514;1.494;2023-08-06T00:07:05;6.27;;;1.90;;
78873;SDS011;68250;43.514;1.494;2023-08-06T00:09:30;4.43;;;1.48;;
78873;SDS011;68250;43.514;1.494;2023-08-06T00:11:56;4.03;;;1.63;;
78873;SDS011;68250;43.514;1.494;2023-08-06T00:14:22;4.10;;;1.65;;
78873;SDS011;68250;43.514;1.494;2023-08-06T00:16:47;4.50;;;1.90;;
78873;SDS011;68250;43.514;1.494;2023-08-06T00:19:13;7.17;;;1.97;;
78873;SDS011;68250;43.514;1.494;2023-08-06T00:21:38;5.50;;;2.50;;
78873;SDS011;68250;43.514;1.494;2023-08-06T00:24:04;6.53;;;1.90;;
78873;SDS011;68250;43.514;1.494;2023-08-06T00:26:30;10.25;;;2.10;;
78873;SDS011;68250;43.514;1.494;2023-08-06T00:28:56;6.23;;;1.70;;
78873;SDS011;68250;43.514;1.494;2023-08-06T00:31:21;5.95;;;1.95;;
78873;SDS011;68250;43.514;1.494;2023-08-06T00:33:47;6.43;;;1.83;;
78873;SDS011;68250;43.514;1.494;2023-08-06T00:36:12;5.43;;;1.77;;
78873;SDS011;68250;43.514;1.494;2023-08-06T00:38:38;4.53;;;1.80;;
78873;SDS011;68250;43.514;1.494;2023-08-06T00:41:04;6.80;;;2.10;;
78873;SDS011;68250;43.514;1.494;2023-08-06T00:43:30;4.80;;;1.90;;
78873;SDS011;68250;43.514;1.494;2023-08-06T00:45:55;8.43;;;2.28;;
78873;SDS011;68250;43.514;1.494;2023-08-06T00:48:21;6.47;;;2.40;;
78873;SDS011;68250;43.514;1.494;2023-08-06T00:50:47;6.80;;;2.25;;
78873;SDS011;68250;43.514;1.494;2023-08-06T00:53:12;8.23;;;2.40;;
78873;SDS011;68250;43.514;1.494;2023-08-06T00:55:38;6.95;;;2.25;;
78873;SDS011;68250;43.514;1.494;2023-08-06T00:58:04;7.38;;;2.30;;
78873;SDS011;68250;43.514;1.494;2023-08-06T01:00:30;9.27;;;2.37;;
78873;SDS011;68250;43.514;1.494;2023-08-06T01:02:56;6.55;;;2.45;;
78873;SDS011;68250;43.514;1.494;2023-08-06T01:05:22;7.60;;;2.00;;
78873;SDS011;68250;43.514;1.494;2023-08-06T01:10:54;9.23;;;1.98;;
78873;SDS011;68250;43.514;1.494;2023-08-06T01:13:44;9.70;;;2.17;;
78873;SDS011;68250;43.514;1.494;2023-08-06T01:16:14;7.70;;;2.13;;
78873;SDS011;68250;43.514;1.494;2023-08-06T01:18:40;9.93;;;2.30;;
78873;SDS011;68250;43.514;1.494;2023-08-06T01:21:08;7.93;;;1.92;;
78873;SDS011;68250;43.514;1.494;2023-08-06T01:23:34;6.43;;;1.95;;
78873;SDS011;68250;43.514;1.494;2023-08-06T01:26:02;8.23;;;1.90;;
78873;SDS011;68250;43.514;1.494;2023-08-06T01:31:30;7.28;;;1.85;;
78873;SDS011;68250;43.514;1.494;2023-08-06T01:33:58;7.95;;;1.77;;
78873;SDS011;68250;43.514;1.494;2023-08-06T01:36:24;11.23;;;2.03;;
78873;SDS011;68250;43.514;1.494;2023-08-06T01:38:53;7.30;;;1.70;;
78873;SDS011;68250;43.514;1.494;2023-08-06T01:41:18;11.25;;;1.88;;
78873;SDS011;68250;43.514;1.494;2023-08-06T01:43:44;9.50;;;2.00;;
78873;SDS011;68250;43.514;1.494;2023-08-06T01:46:10;8.40;;;1.67;;
78873;SDS011;68250;43.514;1.494;2023-08-06T01:48:35;8.67;;;1.80;;
78873;SDS011;68250;43.514;1.494;2023-08-06T01:51:03;7.93;;;1.50;;
78873;SDS011;68250;43.514;1.494;2023-08-06T01:53:30;8.85;;;1.90;;
78873;SDS011;68250;43.514;1.494;2023-08-06T01:55:56;11.15;;;1.83;;
78873;SDS011;68250;43.514;1.494;2023-08-06T01:58:22;10.60;;;2.07;;
78873;SDS011;68250;43.514;1.494;2023-08-06T02:00:48;11.23;;;1.70;;
78873;SDS011;68250;43.514;1.494;2023-08-06T02:03:13;10.60;;;1.70;;
78873;SDS011;68250;43.514;1.494;2023-08-06T02:05:39;11.23;;;1.83;;
78873;SDS011;68250;43.514;1.494;2023-08-06T02:08:05;9.23;;;1.93;;
78873;SDS011;68250;43.514;1.494;2023-08-06T02:10:31;9.90;;;1.75;;
78873;SDS011;68250;43.514;1.494;2023-08-06T02:12:57;11.40;;;2.10;;
78873;SDS011;68250;43.514;1.494;2023-08-06T02:15:22;12.68;;;1.75;;
78873;SDS011;68250;43.514;1.494;2023-08-06T02:17:48;11.50;;;2.10;;
78873;SDS011;68250;43.514;1.494;2023-08-06T02:20:14;10.48;;;1.98;;
78873;SDS011;68250;43.514;1.494;2023-08-06T02:22:39;8.90;;;1.77;;
78873;SDS011;68250;43.514;1.494;2023-08-06T02:25:05;10.07;;;1.60;;
78873;SDS011;68250;43.514;1.494;2023-08-06T02:27:31;9.97;;;1.77;;
78873;SDS011;68250;43.514;1.494;2023-08-06T02:29:57;9.80;;;1.50;;
78873;SDS011;68250;43.514;1.494;2023-08-06T02:32:22;13.20;;;1.67;;
78873;SDS011;68250;43.514;1.494;2023-08-06T02:34:48;11.70;;;1.53;;
78873;SDS011;68250;43.514;1.494;2023-08-06T02:37:13;8.75;;;1.50;;
78873;SDS011;68250;43.514;1.494;2023-08-06T02:39:39;11.77;;;1.70;;
78873;SDS011;68250;43.514;1.494;2023-08-06T02:42:08;11.65;;;1.88;;
78873;SDS011;68250;43.514;1.494;2023-08-06T02:44:34;8.07;;;1.40;;
78873;SDS011;68250;43.514;1.494;2023-08-06T02:47:00;12.82;;;1.40;;
78873;SDS011;68250;43.514;1.494;2023-08-06T02:49:26;10.80;;;1.60;;
78873;SDS011;68250;43.514;1.494;2023-08-06T02:51:52;8.90;;;1.80;;
78873;SDS011;68250;43.514;1.494;2023-08-06T02:54:18;10.97;;;1.30;;
78873;SDS011;68250;43.514;1.494;2023-08-06T02:56:44;8.68;;;1.50;;
78873;SDS011;68250;43.514;1.494;2023-08-06T02:59:10;11.13;;;1.40;;
78873;SDS011;68250;43.514;1.494;2023-08-06T03:01:36;12.07;;;1.50;;
78873;SDS011;68250;43.514;1.494;2023-08-06T03:04:02;11.63;;;1.30;;
78873;SDS011;68250;43.514;1.494;2023-08-06T03:06:28;9.85;;;1.40;;
78873;SDS011;68250;43.514;1.494;2023-08-06T03:08:54;10.53;;;1.53;;
78873;SDS011;68250;43.514;1.494;2023-08-06T03:11:19;10.88;;;1.60;;
78873;SDS011;68250;43.514;1.494;2023-08-06T03:13:45;10.37;;;1.13;;
78873;SDS011;68250;43.514;1.494;2023-08-06T03:16:12;9.27;;;1.10;;
78873;SDS011;68250;43.514;1.494;2023-08-06T03:18:38;10.70;;;1.25;;
78873;SDS011;68250;43.514;1.494;2023-08-06T03:21:03;11.20;;;1.50;;
78873;SDS011;68250;43.514;1.494;2023-08-06T03:23:29;8.60;;;1.57;;
78873;SDS011;68250;43.514;1.494;2023-08-06T03:25:55;11.63;;;1.70;;
78873;SDS011;68250;43.514;1.494;2023-08-06T03:28:20;10.57;;;1.50;;
78873;SDS011;68250;43.514;1.494;2023-08-06T03:30:47;9.93;;;1.45;;
78873;SDS011;68250;43.514;1.494;2023-08-06T03:33:13;11.43;;;1.90;;
78873;SDS011;68250;43.514;1.494;2023-08-06T03:35:39;9.73;;;1.45;;
78873;SDS011;68250;43.514;1.494;2023-08-06T03:38:05;10.73;;;1.60;;
78873;SDS011;68250;43.514;1.494;2023-08-06T03:40:30;10.90;;;1.50;;
78873;SDS011;68250;43.514;1.494;2023-08-06T03:42:56;10.73;;;1.40;;
78873;SDS011;68250;43.514;1.494;2023-08-06T03:45:22;8.30;;;1.38;;
78873;SDS011;68250;43.514;1.494;2023-08-06T03:47:47;11.80;;;1.90;;
78873;SDS011;68250;43.514;1.494;2023-08-06T03:50:13;10.48;;;1.75;;
78873;SDS011;68250;43.514;1.494;2023-08-06T03:52:39;12.30;;;1.80;;
78873;SDS011;68250;43.514;1.494;2023-08-06T03:55:05;11.93;;;1.98;;
78873;SDS011;68250;43.514;1.494;2023-08-06T03:57:30;11.30;;;1.50;;
78873;SDS011;68250;43.514;1.494;2023-08-06T03:59:56;10.38;;;1.60;;
78873;SDS011;68250;43.514;1.494;2023-08-06T04:02:22;8.43;;;1.33;;
78873;SDS011;68250;43.514;1.494;2023-08-06T04:04:48;11.50;;;1.42;;
78873;SDS011;68250;43.514;1.494;2023-08-06T04:07:14;12.53;;;1.77;;
78873;SDS011;68250;43.514;1.494;2023-08-06T04:09:54;13.70;;;1.73;;
78873;SDS011;68250;43.514;1.494;2023-08-06T04:12:22;8.15;;;1.35;;
78873;SDS011;68250;43.514;1.494;2023-08-06T04:14:47;11.57;;;1.53;;
78873;SDS011;68250;43.514;1.494;2023-08-06T04:17:13;10.45;;;1.52;;
78873;SDS011;68250;43.514;1.494;2023-08-06T04:19:39;11.20;;;1.77;;
78873;SDS011;68250;43.514;1.494;2023-08-06T04:22:04;10.48;;;1.27;;
78873;SDS011;68250;43.514;1.494;2023-08-06T04:24:30;10.27;;;1.50;;
78873;SDS011;68250;43.514;1.494;2023-08-06T04:26:56;13.57;;;1.50;;
78873;SDS011;68250;43.514;1.494;2023-08-06T04:29:21;12.90;;;1.67;;
78873;SDS011;68250;43.514;1.494;2023-08-06T04:31:47;12.23;;;1.80;;
78873;SDS011;68250;43.514;1.494;2023-08-06T04:34:13;9.60;;;1.30;;
78873;SDS011;68250;43.514;1.494;2023-08-06T04:36:38;9.73;;;1.60;;
78873;SDS011;68250;43.514;1.494;2023-08-06T04:39:04;12.57;;;1.60;;
78873;SDS011;68250;43.514;1.494;2023-08-06T04:41:30;12.83;;;1.70;;
78873;SDS011;68250;43.514;1.494;2023-08-06T04:43:56;10.77;;;1.42;;
78873;SDS011;68250;43.514;1.494;2023-08-06T04:46:22;12.27;;;1.57;;
78873;SDS011;68250;43.514;1.494;2023-08-06T04:48:47;14.63;;;1.95;;
78873;SDS011;68250;43.514;1.494;2023-08-06T04:51:13;10.50;;;1.10;;
78873;SDS011;68250;43.514;1.494;2023-08-06T04:53:39;13.77;;;1.90;;
78873;SDS011;68250;43.514;1.494;2023-08-06T04:56:05;12.80;;;2.00;;
78873;SDS011;68250;43.514;1.494;2023-08-06T04:58:31;12.40;;;1.53;;
78873;SDS011;68250;43.514;1.494;2023-08-06T05:00:56;11.23;;;1.40;;
78873;SDS011;68250;43.514;1.494;2023-08-06T05:03:22;9.52;;;1.65;;
78873;SDS011;68250;43.514;1.494;2023-08-06T05:05:48;13.13;;;1.73;;
78873;SDS011;68250;43.514;1.494;2023-08-06T05:08:15;12.27;;;1.73;;
78873;SDS011;68250;43.514;1.494;2023-08-06T05:10:44;12.15;;;2.00;;
78873;SDS011;68250;43.514;1.494;2023-08-06T05:13:10;13.75;;;1.85;;
78873;SDS011;68250;43.514;1.494;2023-08-06T05:15:36;17.70;;;2.25;;
78873;SDS011;68250;43.514;1.494;2023-08-06T05:18:02;18.20;;;1.70;;
78873;SDS011;68250;43.514;1.494;2023-08-06T05:20:28;12.27;;;1.58;;
78873;SDS011;68250;43.514;1.494;2023-08-06T05:22:54;13.17;;;1.83;;
78873;SDS011;68250;43.514;1.494;2023-08-06T05:25:19;13.50;;;1.77;;
78873;SDS011;68250;43.514;1.494;2023-08-06T05:27:45;12.82;;;1.90;;
78873;SDS011;68250;43.514;1.494;2023-08-06T05:30:11;15.73;;;2.10;;
78873;SDS011;68250;43.514;1.494;2023-08-06T05:32:36;10.23;;;1.70;;
78873;SDS011;68250;43.514;1.494;2023-08-06T05:35:02;11.82;;;2.05;;
78873;SDS011;68250;43.514;1.494;2023-08-06T05:37:28;11.48;;;1.48;;
78873;SDS011;68250;43.514;1.494;2023-08-06T05:39:54;10.47;;;1.90;;
78873;SDS011;68250;43.514;1.494;2023-08-06T05:42:19;13.38;;;1.75;;
78873;SDS011;68250;43.514;1.494;2023-08-06T05:44:45;14.87;;;1.80;;
78873;SDS011;68250;43.514;1.494;2023-08-06T05:47:10;11.00;;;2.20;;
78873;SDS011;68250;43.514;1.494;2023-08-06T05:49:36;14.25;;;2.13;;
78873;SDS011;68250;43.514;1.494;2023-08-06T05:52:02;11.27;;;1.37;;
78873;SDS011;68250;43.514;1.494;2023-08-06T05:54:31;11.65;;;1.58;;
78873;SDS011;68250;43.514;1.494;2023-08-06T05:56:57;14.45;;;1.70;;
78873;SDS011;68250;43.514;1.494;2023-08-06T05:59:22;13.60;;;1.90;;
78873;SDS011;68250;43.514;1.494;2023-08-06T06:01:48;10.98;;;1.83;;
78873;SDS011;68250;43.514;1.494;2023-08-06T06:04:14;12.50;;;1.67;;
78873;SDS011;68250;43.514;1.494;2023-08-06T06:06:39;12.90;;;2.17;;
78873;SDS011;68250;43.514;1.494;2023-08-06T06:09:06;11.50;;;1.55;;
78873;SDS011;68250;43.514;1.494;2023-08-06T06:11:32;13.38;;;1.95;;
78873;SDS011;68250;43.514;1.494;2023-08-06T06:13:58;14.17;;;2.00;;
78873;SDS011;68250;43.514;1.494;2023-08-06T06:16:23;12.60;;;1.90;;
78873;SDS011;68250;43.514;1.494;2023-08-06T06:18:49;16.10;;;1.90;;
78873;SDS011;68250;43.514;1.494;2023-08-06T06:21:15;9.55;;;1.75;;
78873;SDS011;68250;43.514;1.494;2023-08-06T06:23:40;12.83;;;1.87;;
78873;SDS011;68250;43.514;1.494;2023-08-06T06:26:06;10.80;;;1.60;;
78873;SDS011;68250;43.514;1.494;2023-08-06T06:28:32;12.30;;;1.75;;
78873;SDS011;68250;43.514;1.494;2023-08-06T06:31:00;13.23;;;1.97;;
78873;SDS011;68250;43.514;1.494;2023-08-06T06:33:26;13.02;;;1.67;;
78873;SDS011;68250;43.514;1.494;2023-08-06T06:35:52;10.38;;;1.70;;
78873;SDS011;68250;43.514;1.494;2023-08-06T06:38:18;10.07;;;1.80;;
78873;SDS011;68250;43.514;1.494;2023-08-06T06:40:44;11.52;;;1.70;;
78873;SDS011;68250;43.514;1.494;2023-08-06T06:43:11;10.23;;;1.83;;
78873;SDS011;68250;43.514;1.494;2023-08-06T06:45:37;10.35;;;1.67;;
78873;SDS011;68250;43.514;1.494;2023-08-06T06:48:03;11.83;;;1.77;;
78873;SDS011;68250;43.514;1.494;2023-08-06T06:50:29;19.83;;;1.88;;
78873;SDS011;68250;43.514;1.494;2023-08-06T06:52:54;10.93;;;1.67;;
78873;SDS011;68250;43.514;1.494;2023-08-06T06:55:20;10.43;;;1.75;;
78873;SDS011;68250;43.514;1.494;2023-08-06T06:57:45;16.37;;;1.97;;
78873;SDS011;68250;43.514;1.494;2023-08-06T07:00:11;12.93;;;1.95;;
78873;SDS011;68250;43.514;1.494;2023-08-06T07:02:37;10.27;;;1.80;;
78873;SDS011;68250;43.514;1.494;2023-08-06T07:05:03;11.95;;;1.85;;
78873;SDS011;68250;43.514;1.494;2023-08-06T07:07:28;10.07;;;1.37;;
78873;SDS011;68250;43.514;1.494;2023-08-06T07:09:54;10.23;;;1.33;;
78873;SDS011;68250;43.514;1.494;2023-08-06T07:12:20;9.48;;;1.60;;
78873;SDS011;68250;43.514;1.494;2023-08-06T07:14:47;14.80;;;1.77;;
78873;SDS011;68250;43.514;1.494;2023-08-06T07:17:12;9.30;;;1.58;;
78873;SDS011;68250;43.514;1.494;2023-08-06T07:19:38;11.70;;;1.43;;
78873;SDS011;68250;43.514;1.494;2023-08-06T07:22:04;10.80;;;1.45;;
78873;SDS011;68250;43.514;1.494;2023-08-06T07:24:29;9.77;;;1.23;;
78873;SDS011;68250;43.514;1.494;2023-08-06T07:26:55;11.93;;;1.40;;
78873;SDS011;68250;43.514;1.494;2023-08-06T07:29:21;11.37;;;1.50;;
78873;SDS011;68250;43.514;1.494;2023-08-06T07:31:47;10.02;;;1.35;;
78873;SDS011;68250;43.514;1.494;2023-08-06T07:34:14;9.32;;;1.23;;
78873;SDS011;68250;43.514;1.494;2023-08-06T07:36:40;14.70;;;2.00;;
78873;SDS011;68250;43.514;1.494;2023-08-06T07:39:09;12.07;;;1.52;;
78873;SDS011;68250;43.514;1.494;2023-08-06T07:41:35;9.90;;;1.23;;
78873;SDS011;68250;43.514;1.494;2023-08-06T07:44:01;12.30;;;1.50;;
78873;SDS011;68250;43.514;1.494;2023-08-06T07:46:27;9.32;;;1.40;;
78873;SDS011;68250;43.514;1.494;2023-08-06T07:48:52;13.03;;;1.63;;
78873;SDS011;68250;43.514;1.494;2023-08-06T07:51:18;9.07;;;1.30;;
78873;SDS011;68250;43.514;1.494;2023-08-06T07:53:44;12.67;;;1.70;;
78873;SDS011;68250;43.514;1.494;2023-08-06T07:56:10;9.95;;;1.60;;
78873;SDS011;68250;43.514;1.494;2023-08-06T07:58:36;13.50;;;1.60;;
78873;SDS011;68250;43.514;1.494;2023-08-06T08:01:01;10.93;;;1.60;;
78873;SDS011;68250;43.514;1.494;2023-08-06T08:03:27;12.97;;;1.60;;
78873;SDS011;68250;43.514;1.494;2023-08-06T08:05:54;10.33;;;1.60;;
78873;SDS011;68250;43.514;1.494;2023-08-06T08:08:22;14.82;;;1.77;;
78873;SDS011;68250;43.514;1.494;2023-08-06T08:10:48;10.60;;;1.50;;
78873;SDS011;68250;43.514;1.494;2023-08-06T08:13:14;12.17;;;1.77;;
78873;SDS011;68250;43.514;1.494;2023-08-06T08:15:40;11.18;;;1.60;;
78873;SDS011;68250;43.514;1.494;2023-08-06T08:18:05;12.30;;;1.77;;
78873;SDS011;68250;43.514;1.494;2023-08-06T08:20:31;11.05;;;1.60;;
78873;SDS011;68250;43.514;1.494;2023-08-06T08:22:58;13.68;;;1.80;;
78873;SDS011;68250;43.514;1.494;2023-08-06T08:25:25;7.50;;;1.20;;
78873;SDS011;68250;43.514;1.494;2023-08-06T08:27:52;9.00;;;1.40;;
78873;SDS011;68250;43.514;1.494;2023-08-06T08:30:18;11.10;;;1.63;;
78873;SDS011;68250;43.514;1.494;2023-08-06T08:32:44;10.00;;;1.52;;
78873;SDS011;68250;43.514;1.494;2023-08-06T08:35:09;10.60;;;1.33;;
78873;SDS011;68250;43.514;1.494;2023-08-06T08:37:37;10.50;;;1.48;;
78873;SDS011;68250;43.514;1.494;2023-08-06T08:40:04;13.27;;;1.50;;
78873;SDS011;68250;43.514;1.494;2023-08-06T08:42:31;9.30;;;1.63;;
78873;SDS011;68250;43.514;1.494;2023-08-06T08:44:56;8.18;;;1.40;;
78873;SDS011;68250;43.514;1.494;2023-08-06T08:47:22;10.07;;;1.13;;
78873;SDS011;68250;43.514;1.494;2023-08-06T08:49:49;9.57;;;1.47;;
78873;SDS011;68250;43.514;1.494;2023-08-06T08:52:18;10.32;;;1.60;;
78873;SDS011;68250;43.514;1.494;2023-08-06T08:54:44;11.68;;;1.70;;
78873;SDS011;68250;43.514;1.494;2023-08-06T08:57:09;9.50;;;1.80;;
78873;SDS011;68250;43.514;1.494;2023-08-06T08:59:35;9.82;;;1.42;;
78873;SDS011;68250;43.514;1.494;2023-08-06T09:02:01;8.53;;;1.40;;
78873;SDS011;68250;43.514;1.494;2023-08-06T09:04:28;11.57;;;1.48;;
78873;SDS011;68250;43.514;1.494;2023-08-06T09:06:56;13.30;;;1.58;;
78873;SDS011;68250;43.514;1.494;2023-08-06T09:09:28;10.77;;;1.45;;
78873;SDS011;68250;43.514;1.494;2023-08-06T09:12:00;9.10;;;1.53;;
78873;SDS011;68250;43.514;1.494;2023-08-06T09:14:29;9.38;;;1.20;;
78873;SDS011;68250;43.514;1.494;2023-08-06T09:16:55;8.93;;;1.42;;
78873;SDS011;68250;43.514;1.494;2023-08-06T09:19:22;8.90;;;1.40;;
78873;SDS011;68250;43.514;1.494;2023-08-06T09:21:50;10.13;;;1.35;;
78873;SDS011;68250;43.514;1.494;2023-08-06T09:24:16;8.50;;;1.05;;
78873;SDS011;68250;43.514;1.494;2023-08-06T09:26:45;10.23;;;1.50;;
78873;SDS011;68250;43.514;1.494;2023-08-06T09:29:11;8.75;;;1.25;;
78873;SDS011;68250;43.514;1.494;2023-08-06T09:31:43;7.32;;;1.08;;
78873;SDS011;68250;43.514;1.494;2023-08-06T09:36:50;11.37;;;1.40;;
78873;SDS011;68250;43.514;1.494;2023-08-06T09:39:20;8.43;;;1.10;;
78873;SDS011;68250;43.514;1.494;2023-08-06T09:41:47;12.63;;;1.55;;
78873;SDS011;68250;43.514;1.494;2023-08-06T09:44:15;11.13;;;1.65;;
78873;SDS011;68250;43.514;1.494;2023-08-06T09:46:42;6.97;;;1.10;;
78873;SDS011;68250;43.514;1.494;2023-08-06T09:49:10;7.13;;;1.40;;
78873;SDS011;68250;43.514;1.494;2023-08-06T09:51:37;10.13;;;1.42;;
78873;SDS011;68250;43.514;1.494;2023-08-06T09:54:05;9.15;;;1.48;;
78873;SDS011;68250;43.514;1.494;2023-08-06T09:56:31;9.85;;;1.13;;
78873;SDS011;68250;43.514;1.494;2023-08-06T09:59:02;9.63;;;1.38;;
78873;SDS011;68250;43.514;1.494;2023-08-06T10:01:32;10.33;;;1.67;;
78873;SDS011;68250;43.514;1.494;2023-08-06T10:03:59;7.28;;;1.33;;
78873;SDS011;68250;43.514;1.494;2023-08-06T10:06:26;8.63;;;1.20;;
78873;SDS011;68250;43.514;1.494;2023-08-06T10:08:52;7.50;;;1.10;;
78873;SDS011;68250;43.514;1.494;2023-08-06T10:11:17;7.33;;;1.50;;
78873;SDS011;68250;43.514;1.494;2023-08-06T10:13:46;7.47;;;1.50;;
78873;SDS011;68250;43.514;1.494;2023-08-06T10:16:11;7.90;;;1.20;;
78873;SDS011;68250;43.514;1.494;2023-08-06T10:18:37;9.30;;;1.50;;
78873;SDS011;68250;43.514;1.494;2023-08-06T10:21:04;7.97;;;1.35;;
78873;SDS011;68250;43.514;1.494;2023-08-06T10:23:33;10.32;;;1.67;;
78873;SDS011;68250;43.514;1.494;2023-08-06T10:26:00;8.43;;;1.40;;
78873;SDS011;68250;43.514;1.494;2023-08-06T10:28:36;7.10;;;1.20;;
78873;SDS011;68250;43.514;1.494;2023-08-06T10:31:03;6.65;;;1.27;;
78873;SDS011;68250;43.514;1.494;2023-08-06T10:33:44;8.93;;;1.60;;
78873;SDS011;68250;43.514;1.494;2023-08-06T10:36:10;6.53;;;1.45;;
78873;SDS011;68250;43.514;1.494;2023-08-06T10:38:49;12.02;;;1.60;;
78873;SDS011;68250;43.514;1.494;2023-08-06T10:41:21;7.22;;;1.50;;
78873;SDS011;68250;43.514;1.494;2023-08-06T10:44:06;7.80;;;1.35;;
78873;SDS011;68250;43.514;1.494;2023-08-06T10:46:36;8.73;;;1.30;;
78873;SDS011;68250;43.514;1.494;2023-08-06T10:49:02;12.13;;;1.80;;
78873;SDS011;68250;43.514;1.494;2023-08-06T10:51:28;5.85;;;1.40;;
78873;SDS011;68250;43.514;1.494;2023-08-06T10:53:54;8.40;;;1.50;;
78873;SDS011;68250;43.514;1.494;2023-08-06T10:56:24;6.87;;;1.30;;
78873;SDS011;68250;43.514;1.494;2023-08-06T10:58:53;8.15;;;1.40;;
78873;SDS011;68250;43.514;1.494;2023-08-06T11:01:21;10.63;;;1.67;;
78873;SDS011;68250;43.514;1.494;2023-08-06T11:03:50;5.80;;;1.38;;
78873;SDS011;68250;43.514;1.494;2023-08-06T11:06:18;9.88;;;1.77;;
78873;SDS011;68250;43.514;1.494;2023-08-06T11:08:51;8.63;;;1.23;;
78873;SDS011;68250;43.514;1.494;2023-08-06T11:11:18;7.38;;;1.38;;
78873;SDS011;68250;43.514;1.494;2023-08-06T11:13:47;7.20;;;1.33;;
78873;SDS011;68250;43.514;1.494;2023-08-06T11:16:18;8.43;;;1.70;;
78873;SDS011;68250;43.514;1.494;2023-08-06T11:18:44;8.80;;;1.33;;
78873;SDS011;68250;43.514;1.494;2023-08-06T11:21:10;7.27;;;1.30;;
78873;SDS011;68250;43.514;1.494;2023-08-06T11:23:38;5.85;;;1.20;;
78873;SDS011;68250;43.514;1.494;2023-08-06T11:26:05;9.80;;;1.33;;
78873;SDS011;68250;43.514;1.494;2023-08-06T11:28:31;8.00;;;1.30;;
78873;SDS011;68250;43.514;1.494;2023-08-06T11:30:57;8.55;;;1.45;;
78873;SDS011;68250;43.514;1.494;2023-08-06T11:33:26;6.07;;;1.50;;
78873;SDS011;68250;43.514;1.494;2023-08-06T11:35:53;9.10;;;1.45;;
78873;SDS011;68250;43.514;1.494;2023-08-06T11:38:20;7.63;;;1.20;;
78873;SDS011;68250;43.514;1.494;2023-08-06T11:40:46;8.73;;;1.23;;
78873;SDS011;68250;43.514;1.494;2023-08-06T11:43:13;7.57;;;1.35;;
78873;SDS011;68250;43.514;1.494;2023-08-06T11:45:39;7.03;;;1.00;;
78873;SDS011;68250;43.514;1.494;2023-08-06T11:48:05;7.15;;;1.60;;
78873;SDS011;68250;43.514;1.494;2023-08-06T11:50:35;7.53;;;1.10;;
78873;SDS011;68250;43.514;1.494;2023-08-06T11:53:02;6.32;;;1.52;;
78873;SDS011;68250;43.514;1.494;2023-08-06T11:55:28;7.53;;;1.20;;
78873;SDS011;68250;43.514;1.494;2023-08-06T11:57:54;9.93;;;1.50;;
78873;SDS011;68250;43.514;1.494;2023-08-06T12:00:22;8.88;;;1.65;;
78873;SDS011;68250;43.514;1.494;2023-08-06T12:02:49;6.47;;;1.30;;
78873;SDS011;68250;43.514;1.494;2023-08-06T12:07:52;6.80;;;1.27;;
78873;SDS011;68250;43.514;1.494;2023-08-06T12:10:20;9.00;;;1.52;;
78873;SDS011;68250;43.514;1.494;2023-08-06T12:12:46;6.50;;;1.27;;
78873;SDS011;68250;43.514;1.494;2023-08-06T12:15:13;9.75;;;1.45;;
78873;SDS011;68250;43.514;1.494;2023-08-06T12:17:39;8.32;;;1.38;;
78873;SDS011;68250;43.514;1.494;2023-08-06T12:20:06;10.30;;;1.57;;
78873;SDS011;68250;43.514;1.494;2023-08-06T12:22:32;7.95;;;1.17;;
78873;SDS011;68250;43.514;1.494;2023-08-06T12:25:03;7.78;;;1.60;;
78873;SDS011;68250;43.514;1.494;2023-08-06T12:27:33;6.10;;;0.93;;
78873;SDS011;68250;43.514;1.494;2023-08-06T12:30:02;7.40;;;1.13;;
78873;SDS011;68250;43.514;1.494;2023-08-06T12:32:28;6.65;;;1.42;;
78873;SDS011;68250;43.514;1.494;2023-08-06T12:34:54;6.18;;;1.30;;
78873;SDS011;68250;43.514;1.494;2023-08-06T12:37:20;6.97;;;1.20;;
78873;SDS011;68250;43.514;1.494;2023-08-06T12:39:46;6.82;;;1.48;;
78873;SDS011;68250;43.514;1.494;2023-08-06T12:42:12;5.88;;;0.98;;
78873;SDS011;68250;43.514;1.494;2023-08-06T12:44:38;9.47;;;1.37;;
78873;SDS011;68250;43.514;1.494;2023-08-06T12:47:03;8.95;;;1.27;;
78873;SDS011;68250;43.514;1.494;2023-08-06T12:49:29;5.97;;;1.07;;
78873;SDS011;68250;43.514;1.494;2023-08-06T12:51:56;6.47;;;1.10;;
78873;SDS011;68250;43.514;1.494;2023-08-06T12:54:23;6.03;;;1.00;;
78873;SDS011;68250;43.514;1.494;2023-08-06T12:56:49;8.37;;;1.30;;
78873;SDS011;68250;43.514;1.494;2023-08-06T12:59:15;4.55;;;0.98;;
78873;SDS011;68250;43.514;1.494;2023-08-06T13:01:42;7.88;;;1.23;;
78873;SDS011;68250;43.514;1.494;2023-08-06T13:04:08;8.98;;;1.30;;
78873;SDS011;68250;43.514;1.494;2023-08-06T13:06:34;9.97;;;1.10;;
78873;SDS011;68250;43.514;1.494;2023-08-06T13:09:08;5.47;;;1.23;;
78873;SDS011;68250;43.514;1.494;2023-08-06T13:11:35;6.72;;;1.40;;
78873;SDS011;68250;43.514;1.494;2023-08-06T13:14:05;11.02;;;1.10;;
78873;SDS011;68250;43.514;1.494;2023-08-06T13:16:32;8.02;;;1.13;;
78873;SDS011;68250;43.514;1.494;2023-08-06T13:18:58;5.87;;;1.10;;
78873;SDS011;68250;43.514;1.494;2023-08-06T13:21:24;4.50;;;1.08;;
78873;SDS011;68250;43.514;1.494;2023-08-06T13:23:49;6.90;;;1.00;;
78873;SDS011;68250;43.514;1.494;2023-08-06T13:26:15;6.50;;;1.00;;
78873;SDS011;68250;43.514;1.494;2023-08-06T13:28:41;7.07;;;1.00;;
78873;SDS011;68250;43.514;1.494;2023-08-06T13:31:07;5.97;;;1.42;;
78873;SDS011;68250;43.514;1.494;2023-08-06T13:33:32;5.28;;;1.05;;
78873;SDS011;68250;43.514;1.494;2023-08-06T13:35:58;6.60;;;1.17;;
78873;SDS011;68250;43.514;1.494;2023-08-06T13:38:24;6.30;;;1.27;;
78873;SDS011;68250;43.514;1.494;2023-08-06T13:40:49;6.17;;;1.10;;
78873;SDS011;68250;43.514;1.494;2023-08-06T13:43:15;5.80;;;1.17;;
78873;SDS011;68250;43.514;1.494;2023-08-06T13:45:44;5.73;;;1.00;;
78873;SDS011;68250;43.514;1.494;2023-08-06T13:48:09;5.72;;;1.30;;
78873;SDS011;68250;43.514;1.494;2023-08-06T13:50:35;5.27;;;1.20;;
78873;SDS011;68250;43.514;1.494;2023-08-06T13:53:02;6.90;;;1.10;;
78873;SDS011;68250;43.514;1.494;2023-08-06T13:55:28;8.27;;;1.20;;
78873;SDS011;68250;43.514;1.494;2023-08-06T13:57:54;6.45;;;1.42;;
78873;SDS011;68250;43.514;1.494;2023-08-06T14:00:21;5.63;;;1.00;;
78873;SDS011;68250;43.514;1.494;2023-08-06T14:02:46;8.20;;;1.45;;
78873;SDS011;68250;43.514;1.494;2023-08-06T14:05:12;6.47;;;0.97;;
78873;SDS011;68250;43.514;1.494;2023-08-06T14:07:38;5.22;;;1.10;;
78873;SDS011;68250;43.514;1.494;2023-08-06T14:10:04;4.40;;;1.07;;
78873;SDS011;68250;43.514;1.494;2023-08-06T14:12:30;6.73;;;1.10;;
78873;SDS011;68250;43.514;1.494;2023-08-06T14:14:56;6.80;;;1.02;;
78873;SDS011;68250;43.514;1.494;2023-08-06T14:17:22;6.15;;;1.17;;
78873;SDS011;68250;43.514;1.494;2023-08-06T14:19:47;5.20;;;1.30;;
78873;SDS011;68250;43.514;1.494;2023-08-06T14:22:13;6.50;;;1.45;;
78873;SDS011;68250;43.514;1.494;2023-08-06T14:24:39;5.97;;;0.97;;
78873;SDS011;68250;43.514;1.494;2023-08-06T14:27:05;7.87;;;1.43;;
78873;SDS011;68250;43.514;1.494;2023-08-06T14:29:31;7.43;;;1.30;;
78873;SDS011;68250;43.514;1.494;2023-08-06T14:31:56;7.93;;;1.15;;
78873;SDS011;68250;43.514;1.494;2023-08-06T14:34:22;8.10;;;1.40;;
78873;SDS011;68250;43.514;1.494;2023-08-06T14:36:48;6.47;;;1.33;;
78873;SDS011;68250;43.514;1.494;2023-08-06T14:39:13;7.93;;;1.03;;
78873;SDS011;68250;43.514;1.494;2023-08-06T14:41:39;6.30;;;0.90;;
78873;SDS011;68250;43.514;1.494;2023-08-06T14:44:05;5.63;;;1.30;;
78873;SDS011;68250;43.514;1.494;2023-08-06T14:46:32;6.97;;;1.40;;
78873;SDS011;68250;43.514;1.494;2023-08-06T14:48:58;5.60;;;1.27;;